x

Albatross Bank - 104nm South Of Kodiak, Ak (46078) Wave Buoy

6:50pm - Thu 28th Jul 2016 All times are AKDT. -8 hours from GMT.

  • Sig Wave height 4.3ft
  • Swell Direction
  • Peak Period 7s
  • Average Period 5s
  • Wind
    16mph, 18mph gusts
  • Sea Temp 56°f
  • Air Temp 57°f
  • Sea Pressure 1018.9mb
  • Albatross Bank - 104nm South Of Kodiak, Ak
  • Albatross Bank - 104nm South Of Kodiak, Ak

More Historic Weather Station data

Upgrade to MSW Pro to gain access to the past 30 days of data for over 8000 Wavebouys and Weather Stations around the globe.

Join Pro

Comparision Forecast

View Surf forecast
   
Thu 07/28 6:50pm 4.5ft 7s 5s 16 18 mph 1018.9mb 56f 57f
5:50pm 4.5ft 8s 5s 16 18 mph 1018.6mb 56f 57f
4:50pm 5ft 7s 5s 16 18 mph 1018.2mb 56f 57f
2:50pm 4.5ft 6s 5s 16 18 mph 1017.2mb 56f 57f
1:50pm 4.5ft 7s 5s 16 20 mph 1016.9mb 56f 57f
12:50pm 4.5ft 7s 5s 16 20 mph 1016.4mb 56f 57f
11:50am 4.5ft 5s 5s 18 20 mph 1015.8mb 56f 57f
9:50am 4.5ft 5s 5s 18 22 mph 1014.6mb 56f 56f
8:50am 4.5ft 5s 5s 18 22 mph 1013.9mb 56f 56f
7:50am 4ft 7s 5s 18 22 mph 1013.3mb 56f 55f
6:50am 4.5ft 5s 5s 18 20 mph 1012.8mb 56f 56f
5:50am 4ft 5s 5s 18 20 mph 1012.5mb 56f 55f
4:50am 4ft 5s 5s 16 20 mph 1012.1mb 56f 56f
3:50am 4ft 5s 5s 18 20 mph 1011.8mb 56f 56f
2:50am 3.5ft 4s 5s 18 20 mph 1011.5mb 56f 56f
1:50am 4ft 4s 5s 18 22 mph 1011.1mb 56f 56f
12:50am 3.5ft 7s 5s 20 25 mph 1010.5mb 56f 56f
Wed 07/27 11:50pm 3.5ft 14s 5s 16 20 mph 1010mb 56f 56f
10:50pm 3.5ft 15s 5s 16 18 mph 1009.7mb 56f 56f
9:50pm 3.5ft 13s 6s 13 16 mph 1009.2mb 56f 57f
8:50pm 3.5ft 7s 6s 11 13 mph 1008.6mb 56f 57f
7:50pm 3.5ft 14s 6s 9 11 mph 1008.1mb 56f 56f
6:50pm 3.5ft 7s 6s 7 9 mph 1007.9mb 56f 56f
5:50pm 3.5ft 14s 6s 9 11 mph 1007.7mb 56f 57f
4:50pm 3.5ft 6s 6s 9 11 mph 1007.5mb 56f 57f
3:50pm 3.5ft 7s 6s 11 13 mph 1007.3mb 56f 56f
2:50pm 3.5ft 6s 6s 9 11 mph 1007.2mb 56f 56f
1:50pm 4ft 6s 6s 9 11 mph 1007.1mb 56f 56f
12:50pm 4ft 7s 7s 7 9 mph 1007mb 56f 56f
11:50am 3.5ft 7s 6s 7
mph
1006.7mb 56f 56f
10:50am 4ft 8s 6s 4 7 mph 1006.5mb 56f 55f
9:50am 4ft 13s 6s 4
mph
1006.5mb 56f 55f
8:50am 4ft 14s 7s 2
mph
1006.4mb 56f 55f
7:50am 4ft 14s 7s  -  2 mph 1006.2mb 56f 55f
6:50am 4ft 7s 7s 2
mph
1006.2mb 56f 55f
5:50am 3.5ft 7s 7s 4
mph
1006.2mb 56f 55f
4:50am 3.5ft 7s 6s 2
mph
1006.4mb 56f 55f
3:50am 3.5ft 7s 6s 2 4 mph 1006.5mb 56f 55f
2:50am 3.5ft 7s 7s 4
mph
1006.8mb 56f 55f
1:50am 3.5ft 8s 6s 4
mph
1006.7mb 56f 55f
12:50am 3.5ft 7s 7s 7
mph
1006.9mb 56f 55f
Tue 07/26 11:50pm 3.5ft 8s 6s 7
mph
1007mb 56f 55f
10:50pm 3.5ft 8s 6s 4 7 mph 1006.8mb 56f 55f
9:50pm 3.5ft 15s 6s 7
mph
1006.5mb 56f 55f
8:50pm 3.5ft 15s 6s 7 9 mph 1006.4mb 56f 55f
7:50pm 3.5ft 15s 5s 9
mph
1006.2mb 56f 55f
6:50pm 3.5ft 14s 5s 9 11 mph 1006.4mb 56f 55f
5:50pm 3.5ft 5s 5s 11 13 mph 1006.3mb 56f 54f
4:50pm 3.5ft 14s 5s 13 16 mph 1006.4mb 56f 55f
3:50pm 4ft 15s 5s 13 16 mph 1006.5mb 56f 55f
2:50pm 3.5ft 15s 5s 13 16 mph 1006.7mb 56f 55f
1:50pm 3.5ft 15s 5s 16
mph
1006.6mb 56f 55f
12:50pm 3.5ft 15s 5s 16 18 mph 1006.6mb 56f 55f
11:50am 3.5ft 15s 5s 16 18 mph 1006.4mb 56f 55f
10:50am 3.5ft 15s 5s 16 18 mph 1006.2mb 56f 54f
9:50am 3.5ft 15s 5s 16 18 mph 1006mb 56f 54f
8:50am 3.5ft 5s 5s 16 18 mph 1005.8mb 56f 55f
7:50am 3.5ft 15s 5s 11 13 mph 1005.7mb 56f 53f
6:50am 3.5ft 15s 5s 13 16 mph 1005.4mb 56f 54f
5:50am 3.5ft 15s 5s 13 16 mph 1005.5mb 56f 53f
4:50am 3.5ft 15s 5s 11 13 mph 1005.3mb 56f 54f
3:50am 3.5ft 15s 6s 13 18 mph 1005.3mb 56f 54f
2:50am 3.5ft 15s 5s 11 13 mph 1005.3mb 56f 54f
1:50am 3.5ft 15s 5s 13 16 mph 1005.2mb 56f 54f
12:50am 3.5ft 15s 5s 16 18 mph 1004.9mb 56f 54f
Mon 07/25 11:50pm 4ft 16s 5s 16 20 mph 1004.8mb 56f 54f
10:50pm 4ft 16s 5s 16 20 mph 1004.6mb 56f 55f
9:50pm 4ft 15s 5s 16 18 mph 1004.2mb 56f 55f
8:50pm 4ft 16s 5s 16 18 mph 1003.8mb 56f 55f
7:50pm 4ft 15s 5s 16 18 mph 1003.6mb 56f 55f
6:50pm 4ft 16s 5s 13 18 mph 1003.4mb 56f 55f
5:50pm 4ft 16s 5s 16 18 mph 1003.4mb 56f 55f
4:50pm 4ft 15s 6s 16 18 mph 1003.4mb 56f 55f
3:50pm 3.5ft 16s 6s 13 16 mph 1003.3mb 56f 55f
2:50pm 4ft 14s 6s 11 13 mph 1003.3mb 56f 55f
1:50pm 4ft 8s 6s 11 13 mph 1003.3mb 56f 55f
12:50pm 4.5ft 16s 6s 9 11 mph 1003.4mb 56f 55f
11:50am 4.5ft 8s 6s 9 11 mph 1003.4mb 56f 55f
9:50am 4ft 8s 6s 7 9 mph 1003.4mb 56f 55f
8:50am 4.5ft 14s 6s 7 9 mph 1003.3mb 56f 55f
7:50am 4.5ft 16s 7s 7 9 mph 1003.2mb 56f 55f
6:50am 4.5ft 16s 6s 7 9 mph 1003.2mb 56f 55f
5:50am 4.5ft 16s 6s 9 11 mph 1003.5mb 56f 55f
4:50am 4.5ft 16s 6s 9 11 mph 1003.8mb 56f 55f